Flight Track Log - Related Links

Times and Time Zones

All times are in EDT time to prevent confusion due to time zone crossing. See the CCA833 flight status page for this flight to view local times or setup timezone preferences in your user account.

Time Position Orientation Groundspeed Altitude Reporting Facility
EDT Latitude Longitude Course Direction KTS MPH feet Rate Location/Type
Sun 12:49:32 PM 31.5217 121.6518 339° North 323 372 10,600  Level FlightAware ADS-B (ZSSS / SHA)
Sun 12:51:55 PM 31.5669 121.6054 315° West 355 409 11,400 318 Climbing FlightAware ADS-B (ZSSS / SHA)
Sun 12:54:00 PM 31.7691 121.4369 325° Northwest  Level Estimated
Sun 12:55:00 PM 31.8660 121.3558 325° Northwest  Level Estimated
Sun 12:56:00 PM 31.9630 121.2745 325° Northwest  Level Estimated
Sun 12:57:00 PM 32.0598 121.1931 325° Northwest  Level Estimated
Sun 12:58:00 PM 32.1566 121.1114 324° Northwest  Level Estimated
Sun 12:59:00 PM 32.2534 121.0296 324° Northwest  Level Estimated
Sun 01:00:00 PM 32.3501 120.9476 324° Northwest  Level Estimated
Sun 01:01:00 PM 32.4468 120.8655 324° Northwest  Level Estimated
Sun 01:02:00 PM 32.5434 120.7832 324° Northwest  Level Estimated
Sun 01:03:00 PM 32.6399 120.7007 324° Northwest  Level Estimated
Sun 01:04:00 PM 32.7364 120.6180 324° Northwest  Level Estimated
Sun 01:05:00 PM 32.8329 120.5351 324° Northwest  Level Estimated
Sun 01:06:00 PM 32.9292 120.4521 324° Northwest  Level Estimated
Sun 01:07:00 PM 33.0256 120.3689 324° Northwest  Level Estimated
Sun 01:08:00 PM 33.1218 120.2854 324° Northwest  Level Estimated
Sun 01:09:00 PM 33.2180 120.2019 324° Northwest  Level Estimated
Sun 01:10:00 PM 33.3142 120.1181 324° Northwest  Level Estimated
Sun 01:11:00 PM 33.4103 120.0341 324° Northwest  Level Estimated
Sun 01:12:00 PM 33.5064 119.9500 324° Northwest  Level Estimated
Sun 01:13:00 PM 33.6024 119.8656 324° Northwest  Level Estimated
Sun 01:14:00 PM 33.6983 119.7811 324° Northwest  Level Estimated
Sun 01:15:00 PM 33.7942 119.6964 324° Northwest  Level Estimated
Sun 01:16:00 PM 33.8900 119.6115 324° Northwest  Level Estimated
Sun 01:17:00 PM 33.9858 119.5264 324° Northwest  Level Estimated
Sun 01:18:00 PM 34.0815 119.4411 324° Northwest  Level Estimated
Sun 01:19:00 PM 34.1771 119.3557 324° Northwest  Level Estimated
Sun 01:20:00 PM 34.2727 119.2700 323° Northwest  Level Estimated
Sun 01:21:00 PM 34.3682 119.1841 323° Northwest  Level Estimated
Sun 01:22:00 PM 34.4637 119.0981 323° Northwest  Level Estimated
Sun 01:23:00 PM 34.5591 119.0118 323° Northwest  Level Estimated
Sun 01:24:00 PM 34.6544 118.9254 323° Northwest  Level Estimated
Sun 01:25:00 PM 34.7497 118.8387 323° Northwest  Level Estimated
Sun 01:26:00 PM 34.8449 118.7519 323° Northwest  Level Estimated
Sun 01:27:00 PM 34.9401 118.6648 323° Northwest  Level Estimated
Sun 01:28:00 PM 35.0352 118.5776 323° Northwest  Level Estimated
Sun 01:29:00 PM 35.1302 118.4901 323° Northwest  Level Estimated
Sun 01:30:00 PM 35.2252 118.4024 323° Northwest  Level Estimated
Sun 01:31:00 PM 35.3201 118.3146 323° Northwest  Level Estimated
Sun 01:32:00 PM 35.4149 118.2265 323° Northwest  Level Estimated
Sun 01:33:00 PM 35.5097 118.1382 323° Northwest  Level Estimated
Sun 01:34:00 PM 35.6044 118.0497 323° Northwest  Level Estimated
Sun 01:35:00 PM 35.6991 117.9610 323° Northwest  Level Estimated
Sun 01:36:00 PM 35.7937 117.8721 323° Northwest  Level Estimated
Sun 01:37:00 PM 35.8882 117.7830 323° Northwest  Level Estimated
Sun 01:38:00 PM 35.9826 117.6936 323° Northwest  Level Estimated
Sun 01:39:00 PM 36.0770 117.6041 323° Northwest  Level Estimated
Sun 01:40:00 PM 36.1713 117.5143 322° Northwest  Level Estimated
Sun 01:41:00 PM 36.2656 117.4243 322° Northwest  Level Estimated
Sun 01:42:00 PM 36.3598 117.3341 322° Northwest  Level Estimated
Sun 01:43:00 PM 36.4539 117.2437 322° Northwest  Level Estimated
Sun 01:44:00 PM 36.5479 117.1531 322° Northwest  Level Estimated
Sun 01:45:00 PM 36.6419 117.0622 322° Northwest  Level Estimated
Sun 01:46:00 PM 36.7358 116.9711 322° Northwest  Level Estimated
Sun 01:47:00 PM 36.8297 116.8798 322° Northwest  Level Estimated
Sun 01:48:00 PM 36.9235 116.7883 322° Northwest  Level Estimated
Sun 01:49:00 PM 37.0172 116.6965 322° Northwest  Level Estimated
Sun 01:50:00 PM 37.1108 116.6046 322° Northwest  Level Estimated
Sun 01:51:00 PM 37.2043 116.5124 322° Northwest  Level Estimated
Sun 01:52:00 PM 37.2978 116.4199 322° Northwest  Level Estimated
Sun 01:53:00 PM 37.3912 116.3272 322° Northwest  Level Estimated
Sun 01:54:00 PM 37.4846 116.2344 322° Northwest  Level Estimated
Sun 01:55:00 PM 37.5779 116.1412 322° Northwest  Level Estimated
Sun 01:56:00 PM 37.6711 116.0479 322° Northwest  Level Estimated
Sun 01:57:00 PM 37.7642 115.9543 322° Northwest  Level Estimated
Sun 01:58:00 PM 37.8572 115.8604 321° Northwest  Level Estimated
Sun 01:59:00 PM 37.9502 115.7663 321° Northwest  Level Estimated
Sun 02:00:00 PM 38.0431 115.6720 321° Northwest  Level Estimated
Sun 02:01:00 PM 38.1359 115.5775 321° Northwest  Level Estimated
Sun 02:02:00 PM 38.2287 115.4827 321° Northwest  Level Estimated
Sun 02:03:00 PM 38.3213 115.3877 321° Northwest  Level Estimated
Sun 02:03:20 PM 39.1922 116.6594 North 498 573 34,100  Level FlightAware ADS-B
Sun 02:03:45 PM 39.2560 116.6643 North 496 571 34,100  Level FlightAware ADS-B
Sun 02:04:00 PM 38.4139 115.2924 321° Northwest  Level Estimated
Sun 02:04:53 PM 39.4173 116.6768 North 493 567 34,100  Level FlightAware ADS-B
Sun 02:06:00 PM 39.5679 116.6885 North 492 566 34,100  Level FlightAware ADS-B
Sun 02:06:29 PM 39.6358 116.6937 North 492 566 34,100  Level FlightAware ADS-B
Sun 02:06:59 PM 39.7034 116.6991 North 494 568 34,100  Level FlightAware ADS-B
Sun 02:07:30 PM 39.7732 116.7044 North 495 570 34,100  Level FlightAware ADS-B
Sun 02:08:00 PM 39.8440 116.7100 North 495 570 34,100  Level FlightAware ADS-B
Sun 02:08:29 PM 39.9094 116.7151 North 494 568 34,100  Level FlightAware ADS-B
Sun 02:08:59 PM 39.9770 116.7206 North 491 565 34,100  Level FlightAware ADS-B
Sun 02:09:29 PM 40.0467 116.7261 North 489 563 34,100  Level FlightAware ADS-B
Sun 02:10:00 PM 40.1156 116.7315 North 488 562 34,100  Level FlightAware ADS-B
Sun 02:10:30 PM 40.1834 116.7369 North 487 560 34,100  Level FlightAware ADS-B
Sun 02:11:00 PM 40.2503 116.7422 North 488 562 34,100  Level FlightAware ADS-B
Sun 02:11:39 PM 40.3386 116.7457 359° North 483 556 34,100  Level FlightAware ADS-B
Sun 02:12:29 PM 40.4486 116.7325 354° North 477 549 34,100  Level FlightAware ADS-B
Sun 02:12:58 PM 40.5123 116.7238 355° North 477 549 34,100  Level FlightAware ADS-B
Sun 02:13:29 PM 40.5817 116.7145 355° North 476 548 34,100  Level FlightAware ADS-B
Sun 02:14:01 PM 40.6507 116.7051 355° North 475 547 34,100  Level FlightAware ADS-B
Sun 02:14:30 PM 40.7100 116.6971 355° North 475 547 34,100  Level FlightAware ADS-B
Sun 02:15:00 PM 40.7796 116.6876 355° North 475 547 34,100  Level FlightAware ADS-B
Sun 02:15:30 PM 40.8465 116.6785 355° North 476 548 34,100  Level FlightAware ADS-B
Sun 02:16:00 PM 40.9114 116.6697 355° North 475 547 34,100  Level FlightAware ADS-B
Sun 02:16:30 PM 40.9780 116.6601 353° North 472 543 34,100  Level FlightAware ADS-B
Sun 02:17:00 PM 41.0405 116.6434 346° North 461 531 34,100  Level FlightAware ADS-B
Sun 02:17:29 PM 41.0998 116.6192 341° North 452 520 34,100  Level FlightAware ADS-B
Sun 02:17:59 PM 41.1562 116.5880 335° Northwest 445 512 34,100  Level FlightAware ADS-B
Sun 02:18:30 PM 41.2117 116.5483 329° Northwest 438 504 34,100  Level FlightAware ADS-B
Sun 02:19:10 PM 41.2772 116.4880 322° Northwest 431 496 34,100  Level FlightAware ADS-B
Sun 02:19:44 PM 41.3106 116.4501 316° Northwest 424 488 34,100  Level FlightAware ADS-B
Sun 02:20:20 PM 41.3749 116.3589 310° West 418 481 34,100  Level FlightAware ADS-B
Sun 02:20:24 PM 41.3790 116.3521 309° West 417 480 34,100  Level FlightAware ADS-B
Sun 02:22:49 PM 41.5386 116.0492 305° West 410 472 34,100  Level FlightAware ADS-B
Sun 02:23:50 PM 41.6026 115.9264 305° West 408 470 34,100  Level FlightAware ADS-B
Sun 02:24:20 PM 41.6371 115.8598 305° West 406 467 34,100  Level FlightAware ADS-B
Sun 02:24:49 PM 41.6678 115.8006 305° West 405 466 34,100  Level FlightAware ADS-B
Sun 02:25:17 PM 41.6976 115.7430 305° West 405 466 34,100  Level FlightAware ADS-B
Sun 02:25:50 PM 41.7301 115.6800 305° West 406 467 34,100  Level FlightAware ADS-B
Sun 02:26:20 PM 41.7647 115.6127 305° West 405 466 34,100  Level FlightAware ADS-B
Sun 02:26:50 PM 41.7959 115.5519 305° West 404 465 34,100  Level FlightAware ADS-B
Sun 02:27:50 PM 41.8607 115.4299 306° West 406 467 34,100  Level FlightAware ADS-B
Sun 02:28:47 PM 41.8972 115.3607 306° West 406 467 34,100  Level FlightAware ADS-B
Sun 02:29:12 PM 41.9495 115.2613 306° West 408 470 34,100  Level FlightAware ADS-B
Sun 02:31:03 PM 42.0686 115.0336 306° West 409 471 34,100 13 Level FlightAware ADS-B
Sun 02:33:00 PM 42.2468 114.8332 320° Northwest  Level Estimated
Sun 02:34:00 PM 42.3380 114.7299 320° Northwest  Level Estimated
Sun 02:35:00 PM 42.4291 114.6264 320° Northwest  Level Estimated
Sun 02:36:00 PM 42.5202 114.5226 320° Northwest  Level Estimated
Sun 02:37:00 PM 42.6111 114.4184 320° Northwest  Level Estimated
Sun 02:38:00 PM 42.7020 114.3140 320° Northwest  Level Estimated
Sun 02:39:00 PM 42.7928 114.2093 320° Northwest  Level Estimated
Sun 02:40:00 PM 42.8834 114.1042 320° Northwest  Level Estimated
Sun 02:41:00 PM 42.9740 113.9989 320° Northwest  Level Estimated
Sun 02:42:00 PM 43.0645 113.8932 320° Northwest  Level Estimated
Sun 02:43:00 PM 43.1548 113.7872 319° Northwest  Level Estimated
Sun 02:44:00 PM 43.2451 113.6809 319° Northwest  Level Estimated
Sun 02:45:00 PM 43.3353 113.5743 319° Northwest  Level Estimated
Sun 02:46:00 PM 43.4254 113.4674 319° Northwest  Level Estimated
Sun 02:47:00 PM 43.5154 113.3601 319° Northwest  Level Estimated
Sun 02:48:00 PM 43.6052 113.2526 319° Northwest  Level Estimated
Sun 02:49:00 PM 43.6950 113.1447 319° Northwest  Level Estimated
Sun 02:50:00 PM 43.7847 113.0365 319° Northwest  Level Estimated
Sun 02:51:00 PM 43.8742 112.9279 319° Northwest  Level Estimated
Sun 02:52:00 PM 43.9637 112.8191 319° Northwest  Level Estimated
Sun 02:53:00 PM 44.0531 112.7099 319° Northwest  Level Estimated
Sun 02:54:00 PM 44.1423 112.6004 319° Northwest  Level Estimated
Sun 02:55:00 PM 44.2315 112.4905 319° Northwest  Level Estimated
Sun 02:56:00 PM 44.3205 112.3803 319° Northwest  Level Estimated
Sun 02:57:00 PM 44.4095 112.2698 318° Northwest  Level Estimated
Sun 02:58:00 PM 44.4983 112.1590 318° Northwest  Level Estimated
Sun 02:59:00 PM 44.5871 112.0478 318° Northwest  Level Estimated
Sun 03:00:00 PM 44.6757 111.9362 318° Northwest  Level Estimated
Sun 03:01:00 PM 44.7642 111.8243 318° Northwest  Level Estimated
Sun 03:02:00 PM 44.8526 111.7121 318° Northwest  Level Estimated
Sun 03:03:00 PM 44.9409 111.5996 318° Northwest  Level Estimated
Sun 03:04:00 PM 45.0291 111.4866 318° Northwest  Level Estimated
Sun 03:05:00 PM 45.1171 111.3734 318° Northwest  Level Estimated
Sun 03:06:00 PM 45.2051 111.2598 318° Northwest  Level Estimated
Sun 03:07:00 PM 45.2929 111.1458 318° Northwest  Level Estimated
Sun 03:08:00 PM 45.3807 111.0315 318° Northwest  Level Estimated
Sun 03:09:00 PM 45.4683 110.9168 317° Northwest  Level Estimated
Sun 03:10:00 PM 45.5558 110.8018 317° Northwest  Level Estimated
Sun 03:11:00 PM 45.6432 110.6864 317° Northwest  Level Estimated
Sun 03:12:00 PM 45.7304 110.5707 317° Northwest  Level Estimated
Sun 03:13:00 PM 45.8176 110.4546 317° Northwest  Level Estimated
Sun 03:14:00 PM 45.9046 110.3381 317° Northwest  Level Estimated
Sun 03:15:00 PM 45.9916 110.2213 317° Northwest  Level Estimated
Sun 03:16:00 PM 46.0783 110.1041 317° Northwest  Level Estimated
Sun 03:17:00 PM 46.1650 109.9865 317° Northwest  Level Estimated
Sun 03:18:00 PM 46.2516 109.8686 317° Northwest  Level Estimated
Sun 03:19:00 PM 46.3380 109.7503 317° Northwest  Level Estimated
Sun 03:20:00 PM 46.4243 109.6316 317° Northwest  Level Estimated
Sun 03:21:00 PM 46.5105 109.5125 316° Northwest  Level Estimated
Sun 03:22:00 PM 46.5966 109.3931 316° Northwest  Level Estimated
Sun 03:23:00 PM 46.6825 109.2732 316° Northwest  Level Estimated
Sun 03:24:00 PM 46.7683 109.1530 316° Northwest  Level Estimated
Sun 03:25:00 PM 46.8540 109.0324 316° Northwest  Level Estimated
Sun 03:26:00 PM 46.9396 108.9115 316° Northwest  Level Estimated
Sun 03:27:00 PM 47.0250 108.7901 316° Northwest  Level Estimated
Sun 03:28:00 PM 47.1103 108.6684 316° Northwest  Level Estimated
Sun 03:29:00 PM 47.1955 108.5462 316° Northwest  Level Estimated
Sun 03:30:00 PM 47.2805 108.4237 316° Northwest  Level Estimated
Sun 03:31:00 PM 47.3654 108.3008 316° Northwest  Level Estimated
Sun 03:32:00 PM 47.4502 108.1774 315° West  Level Estimated
Sun 03:33:00 PM 47.5349 108.0537 315° West  Level Estimated
Sun 03:34:00 PM 47.6194 107.9296 315° West  Level Estimated
Sun 03:35:00 PM 47.7038 107.8051 315° West  Level Estimated
Sun 03:36:00 PM 47.7880 107.6802 315° West  Level Estimated
Sun 03:37:00 PM 47.8721 107.5548 315° West  Level Estimated
Sun 03:38:00 PM 47.9561 107.4291 315° West  Level Estimated
Sun 03:39:00 PM 48.0399 107.3029 315° West  Level Estimated
Sun 03:40:00 PM 48.1236 107.1764 315° West  Level Estimated
Sun 03:41:00 PM 48.2072 107.0494 315° West  Level Estimated
Sun 03:42:00 PM 48.2906 106.9220 315° West  Level Estimated
Sun 03:43:00 PM 48.3739 106.7942 314° West  Level Estimated
Sun 03:44:00 PM 48.4570 106.6660 314° West  Level Estimated
Sun 03:45:00 PM 48.5400 106.5374 314° West  Level Estimated
Sun 03:46:00 PM 48.6228 106.4083 314° West  Level Estimated
Sun 03:47:00 PM 48.7056 106.2788 314° West  Level Estimated
Sun 03:48:00 PM 48.7881 106.1489 314° West  Level Estimated
Sun 03:49:00 PM 48.8705 106.0186 314° West  Level Estimated
Sun 03:50:00 PM 48.9528 105.8878 314° West  Level Estimated
Sun 03:51:00 PM 49.0349 105.7566 314° West  Level Estimated
Sun 03:52:00 PM 49.1169 105.6249 314° West  Level Estimated
Sun 03:53:00 PM 49.1987 105.4929 313° West  Level Estimated
Sun 03:54:00 PM 49.2803 105.3604 313° West  Level Estimated
Sun 03:55:00 PM 49.3619 105.2274 313° West  Level Estimated
Sun 03:56:00 PM 49.4432 105.0940 313° West  Level Estimated
Sun 03:57:00 PM 49.5244 104.9602 313° West  Level Estimated
Sun 03:58:00 PM 49.6055 104.8259 313° West  Level Estimated
Sun 03:59:00 PM 49.6864 104.6912 313° West  Level Estimated
Sun 04:00:00 PM 49.7671 104.5560 313° West  Level Estimated
Sun 04:01:00 PM 49.8477 104.4204 313° West  Level Estimated
Sun 04:02:00 PM 49.9281 104.2843 313° West  Level Estimated
Sun 04:03:00 PM 50.0084 104.1478 312° West  Level Estimated
Sun 04:04:00 PM 50.0885 104.0108 312° West  Level Estimated
Sun 04:05:00 PM 50.1684 103.8734 312° West  Level Estimated
Sun 04:06:00 PM 50.2482 103.7355 312° West  Level Estimated
Sun 04:07:00 PM 50.3278 103.5971 312° West  Level Estimated
Sun 04:08:00 PM 50.4072 103.4583 312° West  Level Estimated
Sun 04:09:00 PM 50.4865 103.3190 312° West  Level Estimated
Sun 04:10:00 PM 50.5657 103.1792 312° West  Level Estimated
Sun 04:11:00 PM 50.6446 103.0390 312° West  Level Estimated
Sun 04:12:00 PM 50.7234 102.8983 312° West  Level Estimated
Sun 04:13:00 PM 50.8020 102.7571 311° West  Level Estimated
Sun 04:14:00 PM 50.8804 102.6155 311° West  Level Estimated
Sun 04:15:00 PM 50.9587 102.4734 311° West  Level Estimated
Sun 04:16:00 PM 51.0368 102.3307 311° West  Level Estimated
Sun 04:17:00 PM 51.1147 102.1877 311° West  Level Estimated
Sun 04:18:00 PM 51.1924 102.0441 311° West  Level Estimated
Sun 04:19:00 PM 51.2700 101.9000 311° West  Level Estimated
Sun 04:20:00 PM 51.3474 101.7555 311° West  Level Estimated
Sun 04:21:00 PM 51.4246 101.6105 311° West  Level Estimated
Sun 04:22:00 PM 51.5016 101.4649 310° West  Level Estimated
Sun 04:23:00 PM 51.5785 101.3189 310° West  Level Estimated
Sun 04:24:00 PM 51.6552 101.1724 310° West  Level Estimated
Sun 04:25:00 PM 51.7317 101.0254 310° West  Level Estimated
Sun 04:26:00 PM 51.8079 100.8779 310° West  Level Estimated
Sun 04:27:00 PM 51.8841 100.7299 310° West  Level Estimated
Sun 04:28:00 PM 51.9600 100.5814 310° West  Level Estimated
Sun 04:29:00 PM 52.0358 100.4324 310° West  Level Estimated
Sun 04:30:00 PM 52.1113 100.2829 309° West  Level Estimated
Sun 04:31:00 PM 52.1867 100.1329 309° West  Level Estimated
Sun 04:32:00 PM 52.2618 99.9823 309° West  Level Estimated
Sun 04:33:00 PM 52.3368 99.8313 309° West  Level Estimated
Sun 04:34:00 PM 52.4116 99.6797 309° West  Level Estimated
Sun 04:35:00 PM 52.4862 99.5277 309° West  Level Estimated
Sun 04:36:00 PM 52.5606 99.3751 309° West  Level Estimated
Sun 04:37:00 PM 52.6348 99.2220 309° West  Level Estimated
Sun 04:38:00 PM 52.7088 99.0684 309° West  Level Estimated
Sun 04:39:00 PM 52.7826 98.9142 308° West  Level Estimated
Sun 04:40:00 PM 52.8562 98.7596 308° West  Level Estimated
Sun 04:41:00 PM 52.9296 98.6044 308° West  Level Estimated
Sun 04:42:00 PM 53.0028 98.4487 308° West  Level Estimated
Sun 04:43:00 PM 53.0758 98.2924 308° West  Level Estimated
Sun 04:44:00 PM 53.1486 98.1357 308° West  Level Estimated
Sun 04:45:00 PM 53.2212 97.9784 308° West  Level Estimated
Sun 04:46:00 PM 53.2936 97.8205 308° West  Level Estimated
Sun 04:47:00 PM 53.3657 97.6621 307° West  Level Estimated
Sun 04:48:00 PM 53.4377 97.5032 307° West  Level Estimated
Sun 04:49:00 PM 53.5094 97.3438 307° West  Level Estimated
Sun 04:50:00 PM 53.5810 97.1838 307° West  Level Estimated
Sun 04:51:00 PM 53.6523 97.0233 307° West  Level Estimated
Sun 04:52:00 PM 53.7234 96.8622 307° West  Level Estimated
Sun 04:53:00 PM 53.7943 96.7006 307° West  Level Estimated
Sun 04:54:00 PM 53.8650 96.5384 307° West  Level Estimated
Sun 04:55:00 PM 53.9354 96.3757 306° West  Level Estimated
Sun 04:56:00 PM 54.0056 96.2125 306° West  Level Estimated
Sun 04:57:00 PM 54.0756 96.0487 306° West  Level Estimated
Sun 04:58:00 PM 54.1454 95.8843 306° West  Level Estimated
Sun 04:59:00 PM 54.2150 95.7194 306° West  Level Estimated
Sun 05:00:00 PM 54.2843 95.5539 306° West  Level Estimated
Sun 05:01:00 PM 54.3534 95.3879 306° West  Level Estimated
Sun 05:02:00 PM 54.4223 95.2213 305° West  Level Estimated
Sun 05:03:00 PM 54.4910 95.0541 305° West  Level Estimated
Sun 05:04:00 PM 54.5594 94.8864 305° West  Level Estimated
Sun 05:05:00 PM 54.6275 94.7181 305° West  Level Estimated
Sun 05:06:00 PM 54.6955 94.5493 305° West  Level Estimated
Sun 05:07:00 PM 54.7632 94.3799 305° West  Level Estimated
Sun 05:08:00 PM 54.8307 94.2100 305° West  Level Estimated
Sun 05:09:00 PM 54.8979 94.0394 304° West  Level Estimated
Sun 05:10:00 PM 54.9649 93.8683 304° West  Level Estimated
Sun 05:11:00 PM 55.0317 93.6966 304° West  Level Estimated
Sun 05:12:00 PM 55.0982 93.5244 304° West  Level Estimated
Sun 05:13:00 PM 55.1645 93.3516 304° West  Level Estimated
Sun 05:14:00 PM 55.2305 93.1782 304° West  Level Estimated
Sun 05:15:00 PM 55.2963 93.0042 304° West  Level Estimated
Sun 05:16:00 PM 55.3618 92.8296 303° West  Level Estimated
Sun 05:17:00 PM 55.4271 92.6545 303° West  Level Estimated
Sun 05:18:00 PM 55.4921 92.4788 303° West  Level Estimated
Sun 05:19:00 PM 55.5569 92.3025 303° West  Level Estimated
Sun 05:20:00 PM 55.6214 92.1257 303° West  Level Estimated
Sun 05:21:00 PM 55.6857 91.9482 303° West  Level Estimated
Sun 05:22:00 PM 55.7497 91.7702 303° West  Level Estimated
Sun 05:23:00 PM 55.8135 91.5916 302° West  Level Estimated
Sun 05:24:00 PM 55.8769 91.4124 302° West  Level Estimated
Sun 05:25:00 PM 55.9402 91.2326 302° West  Level Estimated
Sun 05:26:00 PM 56.0032 91.0522 302° West  Level Estimated
Sun 05:27:00 PM 56.0659 90.8712 302° West  Level Estimated
Sun 05:28:00 PM 56.1283 90.6897 302° West  Level Estimated
Sun 05:29:00 PM 56.1905 90.5076 302° West  Level Estimated
Sun 05:30:00 PM 56.2524 90.3248 301° West  Level Estimated
Sun 05:31:00 PM 56.3140 90.1415 301° West  Level Estimated
Sun 05:32:00 PM 56.3754 89.9576 301° West  Level Estimated
Sun 05:33:00 PM 56.4365 89.7731 301° West  Level Estimated
Sun 05:34:00 PM 56.4973 89.5880 301° West  Level Estimated
Sun 05:35:00 PM 56.5578 89.4023 301° West  Level Estimated
Sun 05:36:00 PM 56.6181 89.2160 301° West  Level Estimated
Sun 05:37:00 PM 56.6781 89.0292 300° West  Level Estimated
Sun 05:38:00 PM 56.7378 88.8417 300° West  Level Estimated
Sun 05:39:00 PM 56.7972 88.6536 300° West  Level Estimated
Sun 05:40:00 PM 56.8563 88.4650 300° West  Level Estimated
Sun 05:41:00 PM 56.9152 88.2757 300° West  Level Estimated
Sun 05:42:00 PM 56.9738 88.0859 300° West  Level Estimated
Sun 05:43:00 PM 57.0320 87.8954 299° West  Level Estimated
Sun 05:44:00 PM 57.0900 87.7044 299° West  Level Estimated
Sun 05:45:00 PM 57.1477 87.5127 299° West  Level Estimated
Sun 05:46:00 PM 57.2051 87.3205 299° West  Level Estimated
Sun 05:47:00 PM 57.2622 87.1276 299° West  Level Estimated
Sun 05:48:00 PM 57.3190 86.9342 299° West  Level Estimated
Sun 05:49:00 PM 57.3756 86.7402 298° West  Level Estimated
Sun 05:50:00 PM 57.4318 86.5455 298° West  Level Estimated
Sun 05:51:00 PM 57.4877 86.3503 298° West  Level Estimated
Sun 05:52:00 PM 57.5433 86.1545 298° West  Level Estimated
Sun 05:53:00 PM 57.5986 85.9581 298° West  Level Estimated
Sun 05:54:00 PM 57.6536 85.7610 298° West  Level Estimated
Sun 05:55:00 PM 57.7083 85.5634 297° West  Level Estimated
Sun 05:56:00 PM 57.7627 85.3652 297° West  Level Estimated
Sun 05:57:00 PM 57.8168 85.1664 297° West  Level Estimated
Sun 05:58:00 PM 57.8705 84.9670 297° West  Level Estimated
Sun 05:59:00 PM 57.9240 84.7670 297° West  Level Estimated
Sun 06:00:00 PM 57.9771 84.5664 297° West  Level Estimated
Sun 06:01:00 PM 58.0299 84.3652 296° West  Level Estimated
Sun 06:02:00 PM 58.0824 84.1635 296° West  Level Estimated
Sun 06:03:00 PM 58.1346 83.9611 296° West  Level Estimated
Sun 06:04:00 PM 58.1865 83.7581 296° West  Level Estimated
Sun 06:05:00 PM 58.2380 83.5546 296° West  Level Estimated
Sun 06:06:00 PM 58.2892 83.3504 296° West  Level Estimated
Sun 06:07:00 PM 58.3401 83.1457 295° West  Level Estimated
Sun 06:08:00 PM 58.3907 82.9404 295° West  Level Estimated
Sun 06:09:00 PM 58.4409 82.7344 295° West  Level Estimated
Sun 06:10:00 PM 58.4908 82.5279 295° West  Level Estimated
Sun 06:11:00 PM 58.5404 82.3209 295° West  Level Estimated
Sun 06:12:00 PM 58.5896 82.1132 295° West  Level Estimated
Sun 06:13:00 PM 58.6385 81.9049 294° West  Level Estimated
Sun 06:14:00 PM 58.6870 81.6961 294° West  Level Estimated
Sun 06:15:00 PM 58.7353 81.4867 294° West  Level Estimated
Sun 06:16:00 PM 58.7831 81.2767 294° West  Level Estimated
Sun 06:17:00 PM 58.8307 81.0661 294° West  Level Estimated
Sun 06:18:00 PM 58.8779 80.8550 293° West  Level Estimated
Sun 06:19:00 PM 58.9247 80.6433 293° West  Level Estimated
Sun 06:20:00 PM 58.9712 80.4310 293° West  Level Estimated
Sun 06:21:00 PM 59.0174 80.2181 293° West  Level Estimated
Sun 06:22:00 PM 59.0632 80.0047 293° West  Level Estimated
Sun 06:23:00 PM 59.1086 79.7907 293° West  Level Estimated
Sun 06:24:00 PM 59.1537 79.5761 292° West  Level Estimated
Sun 06:25:00 PM 59.1984 79.3609 292° West  Level Estimated
Sun 06:26:00 PM 59.2428 79.1452 292° West  Level Estimated
Sun 06:27:00 PM 59.2869 78.9290 292° West  Level Estimated
Sun 06:28:00 PM 59.3305 78.7122 292° West  Level Estimated
Sun 06:29:00 PM 59.3739 78.4948 291° West  Level Estimated
Sun 06:30:00 PM 59.4168 78.2769 291° West  Level Estimated
Sun 06:31:00 PM 59.4594 78.0584 291° West  Level Estimated
Sun 06:32:00 PM 59.5016 77.8394 291° West  Level Estimated
Sun 06:33:00 PM 59.5434 77.6198 291° West  Level Estimated
Sun 06:34:00 PM 59.5849 77.3997 291° West  Level Estimated
Sun 06:35:00 PM 59.6260 77.1790 290° West  Level Estimated
Sun 06:36:00 PM 59.6668 76.9579 290° West  Level Estimated
Sun 06:37:00 PM 59.7071 76.7361 290° West  Level Estimated
Sun 06:38:00 PM 59.7471 76.5139 290° West  Level Estimated
Sun 06:39:00 PM 59.7867 76.2911 290° West  Level Estimated
Sun 06:40:00 PM 59.8260 76.0678 289° West  Level Estimated
Sun 06:41:00 PM 59.8648 75.8439 289° West  Level Estimated
Sun 06:42:00 PM 59.9033 75.6196 289° West  Level Estimated
Sun 06:43:00 PM 59.9414 75.3947 289° West  Level Estimated
Sun 06:44:00 PM 59.9791 75.1693 289° West  Level Estimated
Sun 06:45:00 PM 60.0164 74.9434 288° West  Level Estimated
Sun 06:46:00 PM 60.0534 74.7169 288° West  Level Estimated
Sun 06:47:00 PM 60.0900 74.4900 288° West  Level Estimated
Sun 06:48:00 PM 60.1261 74.2626 288° West  Level Estimated
Sun 06:49:00 PM 60.1619 74.0347 288° West  Level Estimated
Sun 06:50:00 PM 60.1973 73.8063 287° West  Level Estimated
Sun 06:51:00 PM 60.2323 73.5774 287° West  Level Estimated
Sun 06:52:00 PM 60.2668 73.3480 287° West  Level Estimated
Sun 06:53:00 PM 60.3010 73.1181 287° West  Level Estimated
Sun 06:54:00 PM 60.3348 72.8877 287° West  Level Estimated
Sun 06:55:00 PM 60.3682 72.6569 286° West  Level Estimated
Sun 06:56:00 PM 60.4012 72.4256 286° West  Level Estimated
Sun 06:57:00 PM 60.4338 72.1938 286° West  Level Estimated
Sun 06:58:00 PM 60.4660 71.9616 286° West  Level Estimated
Sun 06:59:00 PM 60.4978 71.7289 286° West  Level Estimated
Sun 07:00:00 PM 60.5292 71.4958 285° West  Level Estimated
Sun 07:01:00 PM 60.5602 71.2622 285° West  Level Estimated
Sun 07:02:00 PM 60.5907 71.0282 285° West  Level Estimated
Sun 07:03:00 PM 60.6209 70.7937 285° West  Level Estimated
Sun 07:04:00 PM 60.6507 70.5588 285° West  Level Estimated
Sun 07:05:00 PM 60.6800 70.3234 284° West  Level Estimated
Sun 07:06:00 PM 60.7089 70.0877 284° West  Level Estimated
Sun 07:07:00 PM 60.7374 69.8515 284° West  Level Estimated
Sun 07:08:00 PM 60.7655 69.6149 284° West  Level Estimated
Sun 07:09:00 PM 60.7932 69.3779 284° West  Level Estimated
Sun 07:10:00 PM 60.8204 69.1404 283° West  Level Estimated
Sun 07:11:00 PM 60.8473 68.9026 283° West  Level Estimated
Sun 07:12:00 PM 60.8737 68.6644 283° West  Level Estimated
Sun 07:13:00 PM 60.8997 68.4258 283° West  Level Estimated
Sun 07:14:00 PM 60.9253 68.1868 283° West  Level Estimated
Sun 07:15:00 PM 60.9504 67.9474 282° West  Level Estimated
Sun 07:16:00 PM 60.9751 67.7076 282° West  Level Estimated
Sun 07:17:00 PM 60.9994 67.4675 282° West  Level Estimated
Sun 07:18:00 PM 61.0233 67.2270 282° West  Level Estimated
Sun 07:18:28 PM 60.2530 70.1565 291° West 407 468 38,000  Level FlightAware ADS-B (USTR / TJM)
Sun 07:18:57 PM 60.2728 70.0517 291° West 407 468 38,000  Level FlightAware ADS-B (USTR / TJM)
Sun 07:19:21 PM 60.2881 69.9703 291° West 407 468 38,000  Level FlightAware ADS-B (USTR / TJM)
Sun 07:34:14 PM 60.8283 66.8547 288° West 398 458 38,000  Level FlightAware ADS-B (USTR / TJM)
Sun 07:34:39 PM 60.8450 66.7485 288° West 399 459 38,000  Level FlightAware ADS-B (USTR / TJM)
Sun 07:35:12 PM 60.8642 66.6257 288° West 401 461 38,000  Level FlightAware ADS-B (USTR / TJM)
Sun 07:35:34 PM 60.8762 66.5488 288° West 400 460 38,000 12 Level FlightAware ADS-B (USTR / TJM)
Sun 07:38:00 PM 60.9309 65.9642 281° West  Level Estimated
Sun 07:39:00 PM 60.9527 65.7234 281° West  Level Estimated
Sun 07:40:00 PM 60.9740 65.4822 280° West  Level Estimated
Sun 07:41:00 PM 60.9949 65.2408 280° West  Level Estimated
Sun 07:42:00 PM 61.0154 64.9990 280° West  Level Estimated
Sun 07:43:00 PM 61.0354 64.7569 280° West  Level Estimated
Sun 07:44:00 PM 61.0550 64.5145 280° West  Level Estimated
Sun 07:45:00 PM 61.0741 64.2719 279° West  Level Estimated
Sun 07:46:00 PM 61.0929 64.0289 279° West  Level Estimated
Sun 07:47:00 PM 61.1111 63.7856 279° West  Level Estimated
Sun 07:48:00 PM 61.1290 63.5421 279° West  Level Estimated
Sun 07:49:00 PM 61.1464 63.2983 279° West  Level Estimated
Sun 07:50:00 PM 61.1634 63.0542 278° West  Level Estimated
Sun 07:51:00 PM 61.1799 62.8099 278° West  Level Estimated
Sun 07:52:00 PM 61.1960 62.5653 278° West  Level Estimated
Sun 07:53:00 PM 61.2116 62.3204 278° West  Level Estimated
Sun 07:54:00 PM 61.2268 62.0754 277° West  Level Estimated
Sun 07:55:00 PM 61.2416 61.8301 277° West  Level Estimated
Sun 07:56:00 PM 61.2559 61.5845 277° West  Level Estimated
Sun 07:57:00 PM 61.2698 61.3388 277° West  Level Estimated
Sun 07:58:00 PM 61.2832 61.0928 277° West  Level Estimated
Sun 07:59:00 PM 61.2962 60.8466 276° West  Level Estimated
Sun 08:00:00 PM 61.3088 60.6002 276° West  Level Estimated
Sun 08:01:00 PM 61.3209 60.3537 276° West  Level Estimated
Sun 08:02:00 PM 61.3325 60.1069 276° West  Level Estimated
Sun 08:03:00 PM 61.3437 59.8600 276° West  Level Estimated
Sun 08:04:00 PM 61.3545 59.6129 275° West  Level Estimated
Sun 08:05:00 PM 61.3648 59.3656 275° West  Level Estimated
Sun 08:06:00 PM 61.3746 59.1181 275° West  Level Estimated
Sun 08:07:00 PM 61.3840 58.8706 275° West  Level Estimated
Sun 08:08:00 PM 61.3930 58.6228 274° West  Level Estimated
Sun 08:09:00 PM 61.4015 58.3750 274° West  Level Estimated
Sun 08:10:00 PM 61.4095 58.1269 274° West  Level Estimated
Sun 08:11:00 PM 61.4171 57.8788 274° West  Level Estimated
Sun 08:12:00 PM 61.4243 57.6306 274° West  Level Estimated
Sun 08:13:00 PM 61.4310 57.3822 273° West  Level Estimated
Sun 08:14:00 PM 61.4372 57.1338 273° West  Level Estimated
Sun 08:15:00 PM 61.4430 56.8852 273° West  Level Estimated
Sun 08:16:00 PM 61.4483 56.6366 273° West  Level Estimated
Sun 08:17:00 PM 61.4532 56.3878 272° West  Level Estimated
Sun 08:18:00 PM 61.4577 56.1390 272° West  Level Estimated
Sun 08:19:00 PM 61.4617 55.8902 272° West  Level Estimated
Sun 08:20:00 PM 61.4652 55.6412 272° West  Level Estimated
Sun 08:21:00 PM 61.4683 55.3923 272° West  Level Estimated
Sun 08:22:00 PM 61.4709 55.1432 271° West  Level Estimated
Sun 08:23:00 PM 61.4730 54.8942 271° West  Level Estimated
Sun 08:24:00 PM 61.4747 54.6451 271° West  Level Estimated
Sun 08:25:00 PM 61.4760 54.3960 271° West  Level Estimated
Sun 08:26:00 PM 61.4768 54.1468 270° West  Level Estimated
Sun 08:27:00 PM 61.4771 53.8977 270° West  Level Estimated
Sun 08:28:00 PM 61.4770 53.6485 270° West  Level Estimated
Sun 08:29:00 PM 61.4765 53.3994 270° West  Level Estimated
Sun 08:30:00 PM 61.4754 53.1503 270° West  Level Estimated
Sun 08:31:00 PM 61.4740 52.9012 269° West  Level Estimated
Sun 08:32:00 PM 61.4720 52.6521 269° West  Level Estimated
Sun 08:33:00 PM 61.4697 52.4030 269° West  Level Estimated
Sun 08:34:00 PM 61.4668 52.1540 269° West  Level Estimated
Sun 08:35:00 PM 61.4635 51.9051 269° West  Level Estimated
Sun 08:36:00 PM 61.4598 51.6562 268° West  Level Estimated
Sun 08:37:00 PM 61.4556 51.4073 268° West  Level Estimated
Sun 08:38:00 PM 61.4510 51.1586 268° West  Level Estimated
Sun 08:39:00 PM 61.4459 50.9099 268° West  Level Estimated
Sun 08:40:00 PM 61.4403 50.6613 267° West  Level Estimated
Sun 08:41:00 PM 61.4343 50.4128 267° West  Level Estimated
Sun 08:42:00 PM 61.4278 50.1644 267° West  Level Estimated
Sun 08:43:00 PM 61.4209 49.9161 267° West  Level Estimated
Sun 08:44:00 PM 61.4135 49.6679 267° West  Level Estimated
Sun 08:45:00 PM 61.4057 49.4198 266° West  Level Estimated
Sun 08:46:00 PM 61.3974 49.1719 266° West  Level Estimated
Sun 08:47:00 PM 61.3887 48.9241 266° West  Level Estimated
Sun 08:48:00 PM 61.3796 48.6764 266° West  Level Estimated
Sun 08:49:00 PM 61.3699 48.4289 265° West  Level Estimated
Sun 08:50:00 PM 61.3599 48.1815 265° West  Level Estimated
Sun 08:51:00 PM 61.3493 47.9343 265° West  Level Estimated
Sun 08:52:00 PM 61.3384 47.6873 265° West  Level Estimated
Sun 08:53:00 PM 61.3270 47.4404 265° West  Level Estimated
Sun 08:54:00 PM 61.3151 47.1938 264° West  Level Estimated
Sun 08:55:00 PM 61.3028 46.9473 264° West  Level Estimated
Sun 08:56:00 PM 61.2901 46.7010 264° West  Level Estimated
Sun 08:57:00 PM 61.2769 46.4549 264° West  Level Estimated
Sun 08:58:00 PM 61.2632 46.2091 264° West  Level Estimated
Sun 08:59:00 PM 61.2491 45.9634 263° West  Level Estimated
Sun 09:00:00 PM 61.2346 45.7180 263° West  Level Estimated
Sun 09:01:00 PM 61.2196 45.4728 263° West  Level Estimated
Sun 09:02:00 PM 61.2042 45.2278 263° West  Level Estimated
Sun 09:03:00 PM 61.1883 44.9831 262° West  Level Estimated
Sun 09:04:00 PM 61.1720 44.7387 262° West  Level Estimated
Sun 09:05:00 PM 61.1553 44.4944 262° West  Level Estimated
Sun 09:06:00 PM 61.1381 44.2505 262° West  Level Estimated
Sun 09:07:00 PM 61.1205 44.0068 262° West  Level Estimated
Sun 09:08:00 PM 61.1024 43.7634 261° West  Level Estimated
Sun 09:09:00 PM 61.0839 43.5203 261° West  Level Estimated
Sun 09:10:00 PM 61.0650 43.2774 261° West  Level Estimated
Sun 09:11:00 PM 61.0456 43.0349 261° West  Level Estimated
Sun 09:12:00 PM 61.0258 42.7926 261° West  Level Estimated
Sun 09:13:00 PM 61.0056 42.5507 260° West  Level Estimated
Sun 09:14:00 PM 60.9849 42.3091 260° West  Level Estimated
Sun 09:15:00 PM 60.9638 42.0678 260° West  Level Estimated
Sun 09:16:00 PM 60.9423 41.8268 260° West  Level Estimated
Sun 09:17:00 PM 60.9203 41.5861 259° West  Level Estimated
Sun 09:18:00 PM 60.8979 41.3458 259° West  Level Estimated
Sun 09:19:00 PM 60.8751 41.1058 259° West  Level Estimated
Sun 09:20:00 PM 60.8519 40.8662 259° West  Level Estimated
Sun 09:21:00 PM 60.8282 40.6269 259° West  Level Estimated
Sun 09:22:00 PM 60.8041 40.3880 258° West  Level Estimated
Sun 09:23:00 PM 60.7796 40.1494 258° West  Level Estimated
Sun 09:24:00 PM 60.7547 39.9112 258° West  Level Estimated
Sun 09:25:00 PM 60.7293 39.6734 258° West  Level Estimated
Sun 09:26:00 PM 60.7035 39.4359 258° West  Level Estimated
Sun 09:27:00 PM 60.6773 39.1989 257° West  Level Estimated
Sun 09:28:00 PM 60.6507 38.9622 257° West  Level Estimated
Sun 09:29:00 PM 60.6237 38.7259 257° West  Level Estimated
Sun 09:30:00 PM 60.5962 38.4901 257° West  Level Estimated
Sun 09:31:00 PM 60.5684 38.2546 257° West  Level Estimated
Sun 09:32:00 PM 60.5401 38.0195 256° West  Level Estimated
Sun 09:33:00 PM 60.5114 37.7848 256° West  Level Estimated
Sun 09:34:00 PM 60.4823 37.5506 256° West  Level Estimated
Sun 09:35:00 PM 60.4528 37.3168 256° West  Level Estimated
Sun 09:36:00 PM 60.4229 37.0834 256° West  Level Estimated
Sun 09:37:00 PM 60.3925 36.8504 255° West  Level Estimated
Sun 09:38:00 PM 60.3618 36.6179 255° West  Level Estimated
Sun 09:39:00 PM 60.3307 36.3859 255° West  Level Estimated
Sun 09:40:00 PM 60.2991 36.1542 255° West  Level Estimated
Sun 09:41:00 PM 60.2672 35.9230 255° West  Level Estimated
Sun 09:42:00 PM 60.2348 35.6923 254° West  Level Estimated
Sun 09:43:00 PM 60.2021 35.4620 254° West  Level Estimated
Sun 09:44:00 PM 60.1689 35.2322 254° West  Level Estimated
Sun 09:45:00 PM 60.1354 35.0029 254° West  Level Estimated
Sun 09:46:00 PM 60.1015 34.7740 254° West  Level Estimated
Sun 09:47:00 PM 60.0671 34.5456 253° West  Level Estimated
Sun 09:48:00 PM 60.0324 34.3177 253° West  Level Estimated
Sun 09:49:00 PM 59.9973 34.0902 253° West  Level Estimated
Sun 09:50:00 PM 59.9618 33.8633 253° West  Level Estimated
Sun 09:51:00 PM 59.9259 33.6368 253° West  Level Estimated
Sun 09:52:00 PM 59.8896 33.4109 252° West  Level Estimated
Sun 09:53:00 PM 59.8530 33.1854 252° West  Level Estimated
Sun 09:54:00 PM 59.8159 32.9604 252° West  Level Estimated
Sun 09:55:00 PM 59.7785 32.7359 252° West  Level Estimated
Sun 09:56:00 PM 59.7407 32.5119 252° West  Level Estimated
Sun 09:57:00 PM 59.7025 32.2885 251° West  Level Estimated
Sun 09:58:00 PM 59.6639 32.0655 251° West  Level Estimated
Sun 09:59:00 PM 59.6249 31.8431 251° West  Level Estimated
Sun 10:00:00 PM 59.5856 31.6212 251° West  Level Estimated
Sun 10:01:00 PM 59.5459 31.3998 251° West  Level Estimated
Sun 10:02:00 PM 59.5058 31.1789 250° West  Level Estimated
Sun 10:03:00 PM 59.4654 30.9585 250° West  Level Estimated
Sun 10:04:00 PM 59.4246 30.7387 250° West  Level Estimated
Sun 10:05:00 PM 59.3834 30.5194 250° West  Level Estimated
Sun 10:06:00 PM 59.3418 30.3007 250° West  Level Estimated
Sun 10:07:00 PM 59.2999 30.0825 249° West  Level Estimated
Sun 10:08:00 PM 59.2576 29.8648 249° West  Level Estimated
Sun 10:09:00 PM 59.2150 29.6477 249° West  Level Estimated
Sun 10:10:00 PM 59.1720 29.4311 249° West  Level Estimated
Sun 10:11:00 PM 59.1286 29.2150 249° West  Level Estimated
Sun 10:12:00 PM 59.0849 28.9995 249° West  Level Estimated
Sun 10:13:00 PM 59.0408 28.7846 248° West  Level Estimated
Sun 10:14:00 PM 58.9964 28.5702 248° West  Level Estimated
Sun 10:15:00 PM 58.9516 28.3564 248° West  Level Estimated
Sun 10:16:00 PM 58.9065 28.1431 248° West  Level Estimated
Sun 10:17:00 PM 58.8610 27.9304 248° West  Level Estimated
Sun 10:18:00 PM 58.8151 27.7182 247° West  Level Estimated
Sun 10:19:00 PM 58.7690 27.5066 247° West  Level Estimated
Sun 10:20:00 PM 58.7224 27.2956 247° West  Level Estimated
Sun 10:21:00 PM 58.6755 27.0851 247° West  Level Estimated
Sun 10:21:39 PM 59.4238 27.9296 249° West 437 503 40,000  Level FlightAware ADS-B
Sun 10:22:26 PM 59.3952 27.7796 249° West 437 503 40,000  Level FlightAware ADS-B
Sun 10:23:26 PM 59.3482 27.5388 249° West 438 504 40,000  Level FlightAware ADS-B
Sun 10:24:39 PM 59.2970 27.2805 249° West 441 507 40,000  Level FlightAware ADS-B
Sun 10:25:25 PM 59.2621 27.1063 248° West 441 507 40,000  Level FlightAware ADS-B
Sun 10:26:19 PM 59.2199 26.8974 248° West 439 505 40,000  Level FlightAware ADS-B
Sun 10:26:51 PM 59.2228 26.9115 248° West 438 504 40,000  Level FlightAware ADS-B
Sun 10:29:29 PM 59.0769 26.2055 248° West 439 505 40,000  Level FlightAware ADS-B
Sun 10:30:28 PM 59.0318 25.9920 248° West 440 506 40,000  Level FlightAware ADS-B
Sun 10:31:30 PM 58.9835 25.7657 247° West 439 505 40,000  Level FlightAware ADS-B
Sun 10:32:26 PM 58.9433 25.5791 247° West 440 506 40,000  Level FlightAware ADS-B
Sun 10:33:29 PM 58.8899 25.3347 247° West 438 504 40,000  Level FlightAware ADS-B
Sun 10:34:31 PM 58.8408 25.1126 247° West 439 505 40,000  Level FlightAware ADS-B
Sun 10:35:32 PM 58.7923 24.8948 247° West 439 505 40,000  Level FlightAware ADS-B
Sun 10:36:30 PM 58.7449 24.6845 246° West 440 506 40,000  Level FlightAware ADS-B
Sun 10:37:31 PM 58.6962 24.4700 246° West 438 504 40,000  Level FlightAware ADS-B
Sun 10:38:33 PM 58.6456 24.2503 246° West 439 505 40,000  Level FlightAware ADS-B
Sun 10:41:08 PM 58.5166 23.6983 246° West 443 510 40,000  Level FlightAware ADS-B
Sun 10:42:42 PM 58.4373 23.3666 245° Southwest 443 510 40,000  Level FlightAware ADS-B
Sun 10:43:34 PM 58.3933 23.1838 245° Southwest 443 510 40,000  Level FlightAware ADS-B
Sun 10:44:35 PM 58.3395 22.9633 245° Southwest 447 514 40,000  Level FlightAware ADS-B
Sun 10:45:35 PM 58.2870 22.7502 245° Southwest 449 517 40,000  Level FlightAware ADS-B
Sun 10:46:36 PM 58.2332 22.5342 245° Southwest 449 517 40,000  Level FlightAware ADS-B
Sun 10:47:36 PM 58.1831 22.3193 247° West 446 513 40,000  Level FlightAware ADS-B
Sun 10:48:36 PM 58.1336 22.1040 246° West 446 513 40,000  Level FlightAware ADS-B
Sun 10:49:37 PM 58.0836 21.8903 246° West 446 513 40,000  Level FlightAware ADS-B
Sun 10:50:38 PM 58.0326 21.6746 246° West 447 514 40,000  Level FlightAware ADS-B
Sun 10:51:19 PM 58.0118 21.5870 246° West 446 513 40,000  Level FlightAware ADS-B
Sun 11:04:26 PM 57.2054 18.9282 233° Southwest 459 528 40,000  Level FlightAware ADS-B
Sun 11:06:48 PM 57.0055 18.4478 232° Southwest 463 533 40,000  Level FlightAware ADS-B
Sun 11:08:20 PM 56.8854 18.1639 232° Southwest 466 536 40,000  Level FlightAware ADS-B
Sun 11:08:52 PM 56.8430 18.0644 232° Southwest 465 535 40,000  Level FlightAware ADS-B
Sun 11:09:38 PM 56.7820 17.9222 232° Southwest 467 537 40,000  Level FlightAware ADS-B
Sun 11:10:39 PM 56.7008 17.7342 232° Southwest 467 537 40,000  Level FlightAware ADS-B
Sun 11:11:10 PM 56.6607 17.6416 232° Southwest 468 539 40,000  Level FlightAware ADS-B
Sun 11:11:45 PM 56.6132 17.5326 232° Southwest 469 540 40,000  Level FlightAware ADS-B
Sun 11:12:20 PM 56.5659 17.4245 232° Southwest 469 540 40,000  Level FlightAware ADS-B
Sun 11:12:54 PM 56.5196 17.3192 232° Southwest 470 541 40,000  Level FlightAware ADS-B
Sun 11:13:25 PM 56.4798 17.2291 231° Southwest 470 541 40,000  Level FlightAware ADS-B
Sun 11:13:55 PM 56.4368 17.1318 231° Southwest 470 541 40,000  Level FlightAware ADS-B
Sun 11:14:27 PM 56.3939 17.0357 231° Southwest 470 541 40,000  Level FlightAware ADS-B
Sun 11:15:00 PM 56.3493 16.9359 231° Southwest 469 540 40,000  Level FlightAware ADS-B
Sun 11:17:24 PM 56.1532 16.5020 231° Southwest 465 535 40,000  Level FlightAware ADS-B
Sun 11:18:15 PM 56.0868 16.3566 231° Southwest 463 533 40,000  Level FlightAware ADS-B
Sun 11:18:59 PM 56.0240 16.2202 231° Southwest 463 533 40,000  Level FlightAware ADS-B
Sun 11:19:30 PM 55.9821 16.1294 230° Southwest 462 532 40,000  Level FlightAware ADS-B
Sun 11:20:00 PM 55.9418 16.0426 230° Southwest 462 532 40,000  Level FlightAware ADS-B
Sun 11:20:31 PM 55.9007 15.9543 230° Southwest 462 532 40,000  Level FlightAware ADS-B
Sun 11:21:17 PM 55.8375 15.8191 230° Southwest 461 531 40,000  Level FlightAware ADS-B
Sun 11:23:11 PM 55.6817 15.4891 230° Southwest 459 528 40,000  Level FlightAware ADS-B
Sun 11:23:45 PM 55.6354 15.3921 230° Southwest 458 527 40,000  Level FlightAware ADS-B
Sun 11:24:15 PM 55.5936 15.3045 230° Southwest 458 527 40,000  Level FlightAware ADS-B
Sun 11:24:46 PM 55.5515 15.2166 230° Southwest 458 527 40,000  Level FlightAware ADS-B
Sun 11:25:16 PM 55.5130 15.1367 230° Southwest 458 527 40,000  Level FlightAware ADS-B
Sun 11:25:46 PM 55.4702 15.0481 230° Southwest 457 526 40,000  Level FlightAware ADS-B
Sun 11:26:19 PM 55.4259 14.9566 229° Southwest 457 526 40,000  Level FlightAware ADS-B
Sun 11:26:51 PM 55.3818 14.8661 229° Southwest 456 525 40,000  Level FlightAware ADS-B
Sun 11:27:25 PM 55.3357 14.7718 229° Southwest 456 525 40,000  Level FlightAware ADS-B
Sun 11:27:56 PM 55.2933 14.6854 229° Southwest 455 524 40,000  Level FlightAware ADS-B
Sun 11:28:26 PM 55.2505 14.5985 229° Southwest 453 521 40,000  Level FlightAware ADS-B
Sun 11:29:01 PM 55.2032 14.5029 229° Southwest 452 520 40,000  Level FlightAware ADS-B
Sun 11:29:31 PM 55.1625 14.4207 229° Southwest 451 519 40,000  Level FlightAware ADS-B
Sun 11:30:01 PM 55.1209 14.3371 229° Southwest 451 519 40,000  Level FlightAware ADS-B
Sun 11:30:31 PM 55.0811 14.2573 229° Southwest 450 518 40,000  Level FlightAware ADS-B
Sun 11:31:01 PM 55.0430 14.1813 229° Southwest 450 518 40,000  Level FlightAware ADS-B
Sun 11:31:31 PM 55.0015 14.0986 229° Southwest 452 520 40,000  Level FlightAware ADS-B
Sun 11:32:01 PM 54.9575 14.0115 229° Southwest 453 521 40,000  Level FlightAware ADS-B
Sun 11:32:32 PM 54.9145 13.9265 229° Southwest 453 521 40,000  Level FlightAware ADS-B
Sun 11:33:02 PM 54.8725 13.8439 229° Southwest 455 524 40,000  Level FlightAware ADS-B
Sun 11:33:35 PM 54.8272 13.7548 229° Southwest 456 525 40,000  Level FlightAware ADS-B
Sun 11:34:06 PM 54.7862 13.6745 229° Southwest 457 526 40,000  Level FlightAware ADS-B
Sun 11:34:41 PM 54.7369 13.5786 228° Southwest 458 527 40,000  Level FlightAware ADS-B
Sun 11:35:11 PM 54.6931 13.4939 228° Southwest 458 527 40,000  Level FlightAware ADS-B
Sun 11:35:41 PM 54.6504 13.4112 228° Southwest 460 529 40,000  Level FlightAware ADS-B
Sun 11:36:12 PM 54.6073 13.3281 228° Southwest 460 529 40,000  Level FlightAware ADS-B
Sun 11:36:42 PM 54.5640 13.2447 228° Southwest 463 533 40,000  Level FlightAware ADS-B
Sun 11:37:12 PM 54.5233 13.1668 228° Southwest 462 532 40,000  Level FlightAware ADS-B
Sun 11:37:42 PM 54.4793 13.0827 228° Southwest 461 531 40,000  Level FlightAware ADS-B
Sun 11:38:16 PM 54.4301 12.9894 228° Southwest 459 528 40,000  Level FlightAware ADS-B
Sun 11:38:47 PM 54.3869 12.9076 228° Southwest 457 526 40,000  Level FlightAware ADS-B
Sun 11:39:17 PM 54.3435 12.8258 228° Southwest 455 524 40,000  Level FlightAware ADS-B
Sun 11:39:47 PM 54.3038 12.7511 228° Southwest 453 521 40,000  Level FlightAware ADS-B
Sun 11:40:21 PM 54.2536 12.6570 228° Southwest 451 519 40,000  Level FlightAware ADS-B
Sun 11:40:52 PM 54.2115 12.5784 228° Southwest 450 518 40,000  Level FlightAware ADS-B
Sun 11:41:22 PM 54.1694 12.4999 228° Southwest 450 518 40,000  Level FlightAware ADS-B
Sun 11:41:33 PM 54.1527 12.4689 227° Southwest 449 517 40,000  Level FlightAware ADS-B
Sun 11:42:03 PM 54.1119 12.3933 227° Southwest 449 517 40,000  Level FlightAware ADS-B
Sun 11:42:33 PM 54.0688 12.3136 227° Southwest 450 518 40,000  Level FlightAware ADS-B
Sun 11:43:06 PM 54.0237 12.2307 227° Southwest 450 518 40,000  Level FlightAware ADS-B
Sun 11:43:37 PM 53.9801 12.1506 227° Southwest 450 518 40,000  Level FlightAware ADS-B
Sun 11:44:07 PM 53.9370 12.0718 227° Southwest 452 520 40,000  Level FlightAware ADS-B
Sun 11:44:37 PM 53.8961 11.9974 227° Southwest 452 520 40,000  Level FlightAware ADS-B
Sun 11:45:07 PM 53.8513 11.9158 227° Southwest 453 521 40,000  Level FlightAware ADS-B
Sun 11:45:42 PM 53.8027 11.8275 227° Southwest 454 522 40,000  Level FlightAware ADS-B
Sun 11:46:12 PM 53.7592 11.7491 227° Southwest 455 524 40,000  Level FlightAware ADS-B
Sun 11:46:43 PM 53.7134 11.6668 227° Southwest 454 522 40,000  Level FlightAware ADS-B
Sun 11:47:13 PM 53.6718 11.5923 227° Southwest 452 520 40,000  Level FlightAware ADS-B
Sun 11:47:44 PM 53.6271 11.5122 227° Southwest 451 519 40,000  Level FlightAware ADS-B
Sun 11:48:14 PM 53.5850 11.4373 227° Southwest 451 519 40,000  Level FlightAware ADS-B
Sun 11:48:45 PM 53.5396 11.3567 227° Southwest 451 519 40,000  Level FlightAware ADS-B
Sun 11:49:17 PM 53.4958 11.2792 227° Southwest 452 520 40,000  Level FlightAware ADS-B
Sun 11:49:47 PM 53.4517 11.2013 227° Southwest 452 520 40,000  Level FlightAware ADS-B
Sun 11:50:22 PM 53.4019 11.1139 226° Southwest 453 521 40,000  Level FlightAware ADS-B
Sun 11:50:52 PM 53.3580 11.0368 226° Southwest 452 520 40,000  Level FlightAware ADS-B
Sun 11:51:22 PM 53.3134 10.9591 226° Southwest 451 519 40,000  Level FlightAware ADS-B
Sun 11:51:53 PM 53.2708 10.8849 226° Southwest 449 517 40,000  Level FlightAware ADS-B
Sun 11:52:23 PM 53.2262 10.8074 226° Southwest 449 517 40,000  Level FlightAware ADS-B
Sun 11:52:57 PM 53.1787 10.7251 226° Southwest 448 516 40,000  Level FlightAware ADS-B
Sun 11:53:28 PM 53.1336 10.6474 226° Southwest 445 512 40,000  Level FlightAware ADS-B
Sun 11:53:58 PM 53.0912 10.5746 226° Southwest 445 512 40,000  Level FlightAware ADS-B
Sun 11:54:28 PM 53.0486 10.5015 226° Southwest 445 512 40,000  Level FlightAware ADS-B
Sun 11:54:59 PM 53.0020 10.4219 226° Southwest 448 516 40,000  Level FlightAware ADS-B
Sun 11:55:33 PM 52.9547 10.3414 226° Southwest 448 516 40,000  Level FlightAware ADS-B
Sun 11:56:03 PM 52.9111 10.2673 226° Southwest 446 513 40,000  Level FlightAware ADS-B
Sun 11:56:35 PM 52.8639 10.1875 226° Southwest 443 510 40,000  Level FlightAware ADS-B
Sun 11:57:06 PM 52.8199 10.1133 226° Southwest 440 506 40,000  Level FlightAware ADS-B
Sun 11:57:37 PM 52.7777 10.0424 226° Southwest 439 505 40,000  Level FlightAware ADS-B
Sun 11:58:08 PM 52.7326 9.9667 226° Southwest 439 505 40,000  Level FlightAware ADS-B
Sun 11:58:38 PM 52.6900 9.8956 225° Southwest 440 506 40,000  Level FlightAware ADS-B
Sun 11:59:13 PM 52.6428 9.8169 225° Southwest 441 507 40,000  Level FlightAware ADS-B
Sun 11:59:48 PM 52.5905 9.7301 225° Southwest 443 510 40,000  Level FlightAware ADS-B
Mon 12:00:18 AM 52.5474 9.6589 225° Southwest 445 512 40,000  Level FlightAware ADS-B
Mon 12:00:52 AM 52.4977 9.5769 225° Southwest 445 512 40,000  Level FlightAware ADS-B
Mon 12:01:28 AM 52.4476 9.4948 225° Southwest 448 516 40,000  Level FlightAware ADS-B
Mon 12:02:03 AM 52.3931 9.4055 225° Southwest 450 518 40,000  Level FlightAware ADS-B
Mon 12:02:33 AM 52.3511 9.3370 225° Southwest 449 517 40,000  Level FlightAware ADS-B
Mon 12:03:03 AM 52.3061 9.2636 225° Southwest 448 516 40,000  Level FlightAware ADS-B
Mon 12:03:38 AM 52.2546 9.1798 225° Southwest 448 516 40,000  Level FlightAware ADS-B
Mon 12:04:08 AM 52.2112 9.1096 225° Southwest 447 514 40,000  Level FlightAware ADS-B
Mon 12:04:38 AM 52.1669 9.0381 225° Southwest 448 516 40,000  Level FlightAware ADS-B
Mon 12:05:08 AM 52.1224 8.9665 225° Southwest 448 516 40,000  Level FlightAware ADS-B
Mon 12:05:38 AM 52.0781 8.8956 225° Southwest 449 517 40,000  Level FlightAware ADS-B
Mon 12:06:09 AM 52.0331 8.8237 225° Southwest 450 518 40,000  Level FlightAware ADS-B
Mon 12:06:39 AM 51.9879 8.7517 225° Southwest 450 518 40,000  Level FlightAware ADS-B
Mon 12:07:09 AM 51.9437 8.6813 225° Southwest 450 518 40,000  Level FlightAware ADS-B
Mon 12:07:49 AM 51.8845 8.5876 224° Southwest 451 519 40,000  Level FlightAware ADS-B
Mon 12:08:19 AM 51.8400 8.5174 224° Southwest 451 519 40,000  Level FlightAware ADS-B
Mon 12:08:49 AM 51.7951 8.4467 224° Southwest 452 520 40,000  Level FlightAware ADS-B
Mon 12:09:19 AM 51.7496 8.3752 224° Southwest 453 521 40,000  Level FlightAware ADS-B
Mon 12:09:49 AM 51.7051 8.3056 224° Southwest 453 521 40,000  Level FlightAware ADS-B
Mon 12:10:19 AM 51.6609 8.2368 224° Southwest 453 521 40,000  Level FlightAware ADS-B
Mon 12:10:49 AM 51.6152 8.1657 224° Southwest 452 520 40,000  Level FlightAware ADS-B
Mon 12:11:20 AM 51.5684 8.0933 224° Southwest 451 519 40,000  Level FlightAware ADS-B
Mon 12:11:50 AM 51.5233 8.0236 224° Southwest 451 519 40,000  Level FlightAware ADS-B
Mon 12:12:21 AM 51.4784 7.9546 224° Southwest 451 519 40,000  Level FlightAware ADS-B
Mon 12:12:51 AM 51.4321 7.8833 224° Southwest 451 519 40,000  Level FlightAware ADS-B (EDKL)
Mon 12:13:22 AM 51.3903 7.8191 224° Southwest 449 517 40,000  Level FlightAware ADS-B (EDKL)
Mon 12:13:52 AM 51.3421 7.7454 224° Southwest 448 516 40,000  Level FlightAware ADS-B
Mon 12:14:23 AM 51.2943 7.6725 224° Southwest 447 514 40,000  Level FlightAware ADS-B
Mon 12:14:53 AM 51.2498 7.6048 224° Southwest 447 514 40,000  Level FlightAware ADS-B
Mon 12:15:24 AM 51.2051 7.5372 224° Southwest 446 513 40,000  Level FlightAware ADS-B
Mon 12:15:54 AM 51.1582 7.4664 224° Southwest 447 514 40,000  Level FlightAware ADS-B
Mon 12:16:24 AM 51.1133 7.3986 224° Southwest 446 513 40,000  Level FlightAware ADS-B
Mon 12:16:54 AM 51.0683 7.3310 224° Southwest 446 513 40,000  Level FlightAware ADS-B
Mon 12:17:25 AM 51.0229 7.2631 223° Southwest 446 513 40,000  Level FlightAware ADS-B
Mon 12:17:55 AM 50.9805 7.1996 223° Southwest 446 513 40,000  Level FlightAware ADS-B
Mon 12:18:26 AM 50.9317 7.1271 223° Southwest 446 513 40,000  Level FlightAware ADS-B
Mon 12:19:02 AM 50.8774 7.0464 223° Southwest 446 513 40,000  Level FlightAware ADS-B (EDKL)
Mon 12:19:36 AM 50.8267 6.9714 223° Southwest 446 513 40,000  Level FlightAware ADS-B
Mon 12:20:06 AM 50.7812 6.9043 223° Southwest 446 513 40,000  Level FlightAware ADS-B
Mon 12:20:36 AM 50.7365 6.8386 223° Southwest 446 513 40,000  Level FlightAware ADS-B
Mon 12:21:06 AM 50.6922 6.7736 223° Southwest 445 512 40,000  Level FlightAware ADS-B
Mon 12:21:38 AM 50.6425 6.7009 223° Southwest 445 512 40,000  Level FlightAware ADS-B
Mon 12:22:08 AM 50.5969 6.6345 223° Southwest 444 511 40,000  Level FlightAware ADS-B (LRBS / BBU)
Mon 12:22:39 AM 50.5504 6.5669 223° Southwest 444 511 40,000  Level FlightAware ADS-B
Mon 12:23:11 AM 50.5189 6.5211 223° Southwest 444 511 40,000  Level FlightAware ADS-B (EDKL)
Mon 12:23:43 AM 50.4543 6.4277 223° Southwest 444 511 40,000  Level FlightAware ADS-B
Mon 12:23:58 AM 50.4327 6.3938 231° Southwest 438 504 40,000  Level FlightAware ADS-B (EGHH / BOH)
Mon 12:24:13 AM 50.4149 6.3526 242° Southwest 439 505 40,000  Level FlightAware ADS-B (EGHH / BOH)
Mon 12:24:43 AM 50.3881 6.2676 243° Southwest 443 510 40,000  Level FlightAware ADS-B
Mon 12:24:48 AM 50.3845 6.2566 243° Southwest 444 511 40,000  Level FlightAware ADS-B (EDKL)
Mon 12:25:23 AM 50.3514 6.1546 243° Southwest 445 512 40,000  Level FlightAware ADS-B
Mon 12:25:27 AM 50.3462 6.1388 243° Southwest 446 513 40,000  Level FlightAware ADS-B
Mon 12:25:40 AM 50.3362 6.1081 243° Southwest 447 514 40,000  Level FlightAware ADS-B (EDKL)
Mon 12:26:11 AM 50.3061 6.0155 244° Southwest 445 512 40,000 -484 Level FlightAware ADS-B
Mon 12:26:42 AM 50.2779 5.9292 243° Southwest 450 518 39,500 -1,021 Descending FlightAware ADS-B (EDKL)
Mon 12:26:58 AM 50.2613 5.8784 243° Southwest 445 512 39,200 -1,043 Descending FlightAware ADS-B
Mon 12:27:28 AM 50.2339 5.7949 243° Southwest 432 497 38,700 -1,075 Descending FlightAware ADS-B (LRBS / BBU)
Mon 12:28:05 AM 50.2004 5.6942 243° Southwest 426 490 38,000 -1,469 Descending FlightAware ADS-B
Mon 12:28:17 AM 50.1893 5.6606 243° Southwest 424 488 37,500 -1,256 Descending FlightAware ADS-B (LRBS / BBU)
Mon 12:28:48 AM 50.1627 5.5816 243° Southwest 424 488 37,100 -1,833 Descending FlightAware ADS-B
Mon 12:28:53 AM 50.1724 5.6103 242° Southwest 431 496 36,400 -2,400 Descending FlightAware ADS-B
Mon 12:28:58 AM 50.1539 5.5555 242° Southwest 429 494 36,700 -545 Climbing FlightAware ADS-B
Mon 12:29:26 AM 50.1264 5.4736 243° Southwest 430 495 36,100 -1,418 Descending FlightAware ADS-B
Mon 12:29:53 AM 50.1013 5.3989 243° Southwest 437 503 35,400 -1,532 Descending FlightAware ADS-B
Mon 12:30:13 AM 50.0822 5.3424 243° Southwest 440 506 34,900 -1,615 Descending FlightAware ADS-B
Mon 12:30:45 AM 50.0567 5.2666 242° Southwest 446 513 34,000 -1,429 Descending FlightAware ADS-B (EDKL)
Mon 12:31:16 AM 50.0227 5.1662 242° Southwest 448 516 33,400 -1,355 Descending FlightAware ADS-B
Mon 12:31:47 AM 49.9923 5.0768 242° Southwest 447 514 32,600 -1,500 Descending FlightAware ADS-B
Mon 12:32:20 AM 49.9599 4.9820 242° Southwest 453 521 31,800 -1,216 Descending FlightAware ADS-B
Mon 12:33:01 AM 49.9201 4.8658 242° Southwest 447 514 31,100 -667 Descending FlightAware ADS-B
Mon 12:33:32 AM 49.8898 4.7783 242° Southwest 447 514 31,000 -91 Descending FlightAware ADS-B
Mon 12:34:07 AM 49.8558 4.6798 242° Southwest 447 514 31,000  Level FlightAware ADS-B (LRBS / BBU)
Mon 12:34:46 AM 49.8183 4.5705 242° Southwest 501 577 31,000  Level FlightAware UK
Mon 12:34:48 AM 49.8338 4.6164 242° Southwest 445 512 31,000  Level FlightAware ADS-B (LRBS / BBU)
Mon 12:35:25 AM 49.7799 4.4617 242° Southwest 447 514 31,000  Level FlightAware ADS-B
Mon 12:35:55 AM 49.7512 4.3798 242° Southwest 446 513 31,000 -290 Level FlightAware ADS-B
Mon 12:36:27 AM 49.7194 4.2890 242° Southwest 443 510 30,700 -1,727 Descending FlightAware ADS-B (LRBS / BBU)
Mon 12:37:01 AM 49.6864 4.1957 241° Southwest 439 505 29,100 -3,873 Descending FlightAware ADS-B
Mon 12:37:46 AM 49.6421 4.0688 241° Southwest 463 533 25,600 -4,340 Descending FlightAware UK
Mon 12:37:48 AM 49.6419 4.0698 241° Southwest 421 484 25,700 -4,333 Climbing FlightAware ADS-B (LRBS / BBU)
Mon 12:38:22 AM 49.6077 3.9713 241° Southwest 460 529 23,000 -4,696 Descending FlightAware UK
Mon 12:38:34 AM 49.6286 4.0323 241° Southwest 405 466 22,100 -4,300 Descending FlightAware ADS-B (LRBS / BBU)
Mon 12:39:22 AM 49.5590 3.8366 241° Southwest 313 360 18,700 -3,692 Descending FlightAware UK
Mon 12:39:52 AM 49.5344 3.7684 241° Southwest 417 480 17,300 -1,038 Descending FlightAware UK
Mon 12:46:47 AM 49.2637 2.8731 247° West 286 329 11,000 -815 Descending FlightAware ADS-B
Mon 12:47:36 AM 49.2505 2.8254 247° West 286 329 11,000 -496 Level FlightAware ADS-B
Mon 12:48:48 AM 49.2134 2.6903 247° West 281 323 10,000 -1,581 Descending FlightAware ADS-B
Mon 12:49:45 AM 49.1804 2.5314 257° West 279 321 7,600 -2,250 Descending FlightAware ADS-B
Mon 12:50:48 AM 49.1784 2.4535 254° West 259 298 5,500 -1,793 Descending FlightAware ADS-B
Mon 12:51:12 AM 49.1627 2.3687 252° West 242 278 5,000 -303 Descending FlightAware ADS-B
Mon 12:55:45 AM 49.0068 2.1974 89° East 181 208 4,000 -220 Descending FlightAware ADS-B

Login

Don't have an account? Register now (free) for customized features, flight alerts, and more!